Time;durP1;ratioP1;P1;durP2;ratioP2;P2;SDS_P1;SDS_P2;PMS_P1;PMS_P2;Temp;Humidity;BMP_temperature;BMP_pressure;BME280_temperature;BME280_humidity;BME280_pressure;Samples;Min_cycle;Max_cycle;Signal;HPM_P1;HPM_P2
2021/07/27 00:01:06;;;;;;;5.68;4.32;;;21.30;99.90;;;;;;5030977;28;20034;-79
2021/07/27 00:03:31;;;;;;;5.45;4.20;;;21.40;99.90;;;;;;5031877;28;20026;-80
2021/07/27 00:05:57;;;;;;;6.05;4.43;;;21.40;99.90;;;;;;5038707;28;20553;-79
2021/07/27 00:08:22;;;;;;;6.85;4.82;;;21.40;99.90;;;;;;5031665;28;20392;-79
2021/07/27 00:10:47;;;;;;;6.47;4.57;;;21.40;99.90;;;;;;5031529;28;20030;-79
2021/07/27 00:13:13;;;;;;;8.07;4.95;;;21.40;99.90;;;;;;5030967;28;20484;-79
2021/07/27 00:15:38;;;;;;;7.18;4.50;;;21.40;99.90;;;;;;5031546;28;20428;-79
2021/07/27 00:18:07;;;;;;;5.97;4.10;;;21.40;99.90;;;;;;5031308;28;20026;-79
2021/07/27 00:20:33;;;;;;;6.00;4.32;;;21.40;99.90;;;;;;5030776;28;20088;-79
2021/07/27 00:22:59;;;;;;;8.15;4.53;;;21.40;99.90;;;;;;5033394;28;20053;-80
2021/07/27 00:25:24;;;;;;;9.93;4.97;;;21.30;99.90;;;;;;5031509;28;20030;-80
2021/07/27 00:27:50;;;;;;;12.10;4.60;;;21.30;99.90;;;;;;5031190;28;20028;-79
2021/07/27 00:30:15;;;;;;;12.07;4.90;;;21.30;99.90;;;;;;5031072;28;20033;-80
2021/07/27 00:32:43;;;;;;;5.72;4.75;;;21.20;99.90;;;;;;5030702;28;20026;-79
2021/07/27 00:35:11;;;;;;;5.45;4.43;;;21.20;99.90;;;;;;5031141;28;20582;-79
2021/07/27 00:37:41;;;;;;;6.88;4.13;;;21.20;99.90;;;;;;5032290;28;20473;-79
2021/07/27 00:40:07;;;;;;;7.60;4.47;;;21.20;99.90;;;;;;5030543;28;20506;-80
2021/07/27 00:42:44;;;;;;;8.65;4.55;;;21.20;99.90;;;;;;5031334;28;20022;-79
2021/07/27 00:45:10;;;;;;;6.68;5.18;;;21.10;99.90;;;;;;5030696;28;20025;-79
2021/07/27 00:47:35;;;;;;;6.28;4.45;;;21.10;99.90;;;;;;5030662;28;20033;-80
2021/07/27 00:50:01;;;;;;;7.05;4.70;;;21.10;99.90;;;;;;5030093;28;20028;-79
2021/07/27 00:52:28;;;;;;;8.32;4.80;;;21.10;99.90;;;;;;5031151;28;20036;-80
2021/07/27 00:54:54;;;;;;;5.97;4.15;;;21.00;99.90;;;;;;5030048;28;20017;-79
2021/07/27 00:57:22;;;;;;;4.95;4.40;;;20.90;99.90;;;;;;5030272;28;20033;-80
2021/07/27 00:59:48;;;;;;;7.10;4.22;;;20.90;99.90;;;;;;5030262;28;20108;-80
2021/07/27 01:02:14;;;;;;;7.88;4.90;;;20.90;99.90;;;;;;5030588;28;20160;-80
2021/07/27 01:04:39;;;;;;;9.60;4.93;;;20.90;99.90;;;;;;5030423;28;20509;-80
2021/07/27 01:07:05;;;;;;;7.93;4.70;;;20.90;99.90;;;;;;5030059;28;20048;-79
2021/07/27 01:09:30;;;;;;;9.38;4.32;;;21.00;99.90;;;;;;5030486;28;20033;-80
2021/07/27 01:11:59;;;;;;;7.60;4.93;;;21.00;99.90;;;;;;5030279;28;20021;-79
2021/07/27 01:14:24;;;;;;;6.82;4.93;;;20.90;99.90;;;;;;5030333;28;20034;-79
2021/07/27 01:16:50;;;;;;;5.15;4.32;;;21.00;99.90;;;;;;5030414;28;20029;-79
2021/07/27 01:43:41;;;;;;;10.18;5.38;;;20.70;99.90;;;;;;5029857;28;20105;-79
2021/07/27 01:46:09;;;;;;;5.95;4.63;;;20.70;99.90;;;;;;5029561;28;20025;-80
2021/07/27 01:48:34;;;;;;;9.23;4.53;;;20.70;99.90;;;;;;5030028;28;20107;-80
2021/07/27 01:51:00;;;;;;;7.85;5.20;;;20.70;99.90;;;;;;5029040;28;20084;-79
2021/07/27 01:53:44;;;;;;;6.05;5.05;;;20.70;99.90;;;;;;5029572;28;20025;-80
2021/07/27 01:56:13;;;;;;;6.85;5.00;;;20.70;99.90;;;;;;5029596;28;20037;-80
2021/07/27 01:58:39;;;;;;;7.38;4.60;;;20.70;99.90;;;;;;5028733;28;20029;-80
2021/07/27 02:01:04;;;;;;;7.72;4.50;;;20.70;99.90;;;;;;5029326;28;20021;-79
2021/07/27 02:03:30;;;;;;;8.70;4.78;;;20.70;99.90;;;;;;5029511;28;20037;-79
2021/07/27 02:05:55;;;;;;;6.22;4.88;;;20.70;99.90;;;;;;5028818;28;20045;-79
2021/07/27 02:08:21;;;;;;;6.53;4.68;;;20.70;99.90;;;;;;5029050;28;20029;-79
2021/07/27 02:10:52;;;;;;;6.00;4.45;;;20.70;99.90;;;;;;5029138;28;20036;-80
2021/07/27 02:13:28;;;;;;;7.22;4.65;;;20.70;99.90;;;;;;5031288;28;20019;-80
2021/07/27 02:15:54;;;;;;;7.28;4.90;;;20.70;99.90;;;;;;5032689;28;20028;-80
2021/07/27 02:18:23;;;;;;;7.63;4.80;;;20.70;99.90;;;;;;5029452;28;20029;-80
2021/07/27 02:20:48;;;;;;;7.10;4.80;;;20.70;99.90;;;;;;5028870;28;20029;-80
2021/07/27 02:23:14;;;;;;;6.60;4.60;;;20.70;99.90;;;;;;5028749;28;20022;-80
2021/07/27 02:25:40;;;;;;;6.68;4.90;;;20.70;99.90;;;;;;5033281;28;20396;-80
2021/07/27 02:28:11;;;;;;;5.32;4.72;;;20.70;99.90;;;;;;5029061;28;20086;-80
2021/07/27 02:30:39;;;;;;;8.13;4.70;;;20.70;99.90;;;;;;5030216;28;20530;-80
2021/07/27 02:33:05;;;;;;;6.93;4.78;;;20.70;99.90;;;;;;5028744;28;20079;-80
2021/07/27 02:35:36;;;;;;;7.80;5.05;;;20.70;99.90;;;;;;5029078;28;20480;-80
2021/07/27 02:38:01;;;;;;;;;;;20.70;99.90;;;;;;5029167;28;20049;-80
2021/07/27 02:40:27;;;;;;;7.18;5.25;;;20.80;99.90;;;;;;5029393;28;20411;-80
2021/07/27 02:42:52;;;;;;;5.72;4.65;;;20.70;99.90;;;;;;5028644;28;20385;-80
2021/07/27 02:45:21;;;;;;;7.15;4.68;;;20.70;99.90;;;;;;5028954;28;20277;-80
2021/07/27 02:47:47;;;;;;;8.68;5.25;;;20.80;99.90;;;;;;5028329;28;20091;-80
2021/07/27 02:50:15;;;;;;;7.15;5.18;;;20.80;99.90;;;;;;5030725;28;20041;-80
2021/07/27 02:52:48;;;;;;;8.13;5.60;;;20.70;99.90;;;;;;5033505;28;20112;-80
2021/07/27 02:55:13;;;;;;;7.35;4.90;;;20.70;99.90;;;;;;5030478;28;20551;-80
2021/07/27 02:57:39;;;;;;;9.10;5.00;;;20.70;99.90;;;;;;5028568;28;20029;-80
2021/07/27 03:00:06;;;;;;;11.57;5.38;;;20.70;99.90;;;;;;5028590;28;20067;-80
2021/07/27 03:02:39;;;;;;;6.93;5.05;;;20.70;99.90;;;;;;5029081;28;20087;-80
2021/07/27 03:05:06;;;;;;;7.75;5.60;;;20.60;99.90;;;;;;5027522;28;20053;-80
2021/07/27 03:07:37;;;;;;;13.00;5.88;;;20.60;99.90;;;;;;5027693;28;20076;-80
2021/07/27 03:10:19;;;;;;;6.70;5.40;;;20.60;99.90;;;;;;5028391;28;20038;-80
2021/07/27 03:12:45;;;;;;;7.53;5.05;;;20.50;99.90;;;;;;5028599;28;20037;-80
2021/07/27 03:15:11;;;;;;;8.48;5.22;;;20.50;99.90;;;;;;5028388;28;20030;-80
2021/07/27 03:17:37;;;;;;;7.25;5.13;;;20.50;99.90;;;;;;5027984;28;20032;-80
2021/07/27 03:20:05;;;;;;;6.50;4.93;;;20.50;99.90;;;;;;5027929;28;20025;-81
2021/07/27 03:22:30;;;;;;;7.63;5.70;;;20.50;99.90;;;;;;5028213;28;20037;-80
2021/07/27 03:24:56;;;;;;;9.15;5.28;;;20.50;99.90;;;;;;5032878;28;20120;-80
2021/07/27 03:27:21;;;;;;;7.90;5.15;;;20.50;99.90;;;;;;5028521;28;20088;-80
2021/07/27 03:29:46;;;;;;;10.93;5.38;;;20.40;99.90;;;;;;5028079;28;20021;-81
2021/07/27 03:32:12;;;;;;;14.40;5.72;;;20.40;99.90;;;;;;5028135;28;20515;-80
2021/07/27 03:34:37;;;;;;;7.95;4.95;;;20.30;99.90;;;;;;5028667;28;20029;-78
2021/07/27 03:37:03;;;;;;;6.47;5.10;;;20.30;99.90;;;;;;5028037;28;20029;-78
2021/07/27 03:39:29;;;;;;;7.97;5.50;;;20.40;99.90;;;;;;5027684;28;20072;-78
2021/07/27 03:41:55;;;;;;;9.57;5.68;;;20.30;99.90;;;;;;5027710;28;20026;-79
2021/07/27 03:44:20;;;;;;;5.78;4.72;;;20.30;99.90;;;;;;5028324;28;20476;-79
2021/07/27 03:46:46;;;;;;;7.03;5.30;;;20.20;99.90;;;;;;5028333;28;20037;-79
2021/07/27 03:49:11;;;;;;;7.97;5.45;;;20.20;99.90;;;;;;5027439;28;20067;-80
2021/07/27 03:51:37;;;;;;;9.85;5.35;;;20.20;99.90;;;;;;5028037;28;20025;-79
2021/07/27 03:54:03;;;;;;;6.88;5.32;;;20.20;99.90;;;;;;5022660;28;20071;-79
2021/07/27 03:56:28;;;;;;;10.65;5.90;;;20.20;99.90;;;;;;5028459;28;20037;-80
2021/07/27 03:58:55;;;;;;;8.63;5.68;;;20.20;99.90;;;;;;5027694;28;20388;-80
2021/07/27 04:01:20;;;;;;;10.40;5.60;;;20.20;99.90;;;;;;5027943;28;20041;-79
2021/07/27 04:03:46;;;;;;;9.75;5.88;;;20.20;99.90;;;;;;5028685;28;20387;-80
2021/07/27 04:06:13;;;;;;;8.80;6.00;;;20.20;99.90;;;;;;5030783;28;20048;-80
2021/07/27 04:08:39;;;;;;;8.85;6.00;;;20.20;99.90;;;;;;5031331;28;20043;-80
2021/07/27 04:11:07;;;;;;;11.98;5.80;;;20.20;99.90;;;;;;5031108;28;20029;-79
2021/07/27 04:13:34;;;;;;;8.68;5.40;;;20.20;99.90;;;;;;5031207;28;20045;-80
2021/07/27 04:16:01;;;;;;;8.60;5.85;;;20.20;99.90;;;;;;5030751;28;20483;-80
2021/07/27 04:18:27;;;;;;;9.45;5.20;;;20.20;99.90;;;;;;5031120;28;20491;-80
2021/07/27 04:21:02;;;;;;;11.02;6.15;;;20.20;99.90;;;;;;5031494;28;20064;-79
2021/07/27 04:23:28;;;;;;;9.23;5.85;;;20.20;99.90;;;;;;5032069;28;20428;-80
2021/07/27 04:25:53;;;;;;;10.60;5.53;;;20.20;99.90;;;;;;5031218;28;20036;-80
2021/07/27 04:28:19;;;;;;;7.07;5.45;;;20.20;99.90;;;;;;5030828;28;20037;-80
2021/07/27 04:30:45;;;;;;;7.68;5.68;;;20.20;99.90;;;;;;5031454;28;20068;-79
2021/07/27 04:33:10;;;;;;;12.45;5.80;;;20.30;99.90;;;;;;5030757;28;20036;-79
2021/07/27 04:35:38;;;;;;;8.85;6.00;;;20.20;99.90;;;;;;5031472;28;20112;-79
2021/07/27 04:38:04;;;;;;;7.85;5.72;;;20.20;99.90;;;;;;5030042;28;20416;-80
2021/07/27 04:40:30;;;;;;;9.30;5.68;;;20.20;99.90;;;;;;5030633;28;20036;-79
2021/07/27 04:42:55;;;;;;;10.20;5.93;;;20.20;99.90;;;;;;5031008;28;20041;-79
2021/07/27 04:45:21;;;;;;;8.27;5.53;;;20.20;99.90;;;;;;5027720;28;20033;-80
2021/07/27 04:47:46;;;;;;;8.90;5.85;;;20.20;99.90;;;;;;5030753;28;20551;-79
2021/07/27 04:50:12;;;;;;;11.25;6.07;;;20.30;99.90;;;;;;5030425;28;20026;-79
2021/07/27 04:52:37;;;;;;;8.90;5.85;;;20.30;99.90;;;;;;5031364;28;20424;-79
2021/07/27 04:55:04;;;;;;;8.13;5.57;;;20.30;99.90;;;;;;5030552;28;20037;-79
2021/07/27 04:57:33;;;;;;;7.53;5.03;;;20.40;99.90;;;;;;5030273;28;20033;-79
2021/07/27 05:00:10;;;;;;;11.07;5.25;;;20.40;99.90;;;;;;5030214;28;20547;-79
2021/07/27 05:02:38;;;;;;;7.20;5.20;;;20.40;99.90;;;;;;5030635;28;20021;-79
2021/07/27 05:05:04;;;;;;;8.20;5.68;;;20.40;99.90;;;;;;5027618;28;20025;-79
2021/07/27 05:07:32;;;;;;;9.43;5.18;;;20.40;99.90;;;;;;5030072;28;20051;-78
2021/07/27 05:10:00;;;;;;;8.57;4.97;;;20.50;99.90;;;;;;5033512;28;20723;-79
2021/07/27 05:12:25;;;;;;;7.00;5.13;;;20.50;99.90;;;;;;5030237;28;20037;-80
2021/07/27 05:14:51;;;;;;;6.32;4.80;;;20.50;99.90;;;;;;5029070;28;20017;-75
2021/07/27 05:17:16;;;;;;;8.02;5.10;;;20.60;99.90;;;;;;5030347;28;20105;-76
2021/07/27 05:19:50;;;;;;;8.75;5.50;;;20.60;99.90;;;;;;5031081;28;20025;-77
2021/07/27 05:22:16;;;;;;;8.43;5.70;;;20.60;99.90;;;;;;5038008;28;20452;-77
2021/07/27 05:24:41;;;;;;;7.28;4.78;;;20.70;99.90;;;;;;5027291;28;20053;-77
2021/07/27 05:27:06;;;;;;;9.45;5.18;;;20.70;99.90;;;;;;5030504;28;20063;-78
2021/07/27 05:29:32;;;;;;;9.55;4.70;;;20.70;99.90;;;;;;5030094;28;20497;-77
2021/07/27 05:31:57;;;;;;;9.93;4.75;;;20.70;99.90;;;;;;5031257;28;20386;-78
2021/07/27 05:34:23;;;;;;;9.13;4.78;;;20.80;99.90;;;;;;5036476;28;20100;-79
2021/07/27 05:36:49;;;;;;;7.78;4.55;;;20.70;99.90;;;;;;5030164;28;20029;-77
2021/07/27 05:39:15;;;;;;;8.77;4.70;;;20.80;99.90;;;;;;5029168;28;20021;-76
2021/07/27 05:41:40;;;;;;;10.48;4.97;;;20.80;99.90;;;;;;5030049;28;20028;-77
2021/07/27 05:44:07;;;;;;;6.72;5.20;;;20.90;99.90;;;;;;5029868;28;20448;-77
2021/07/27 05:46:32;;;;;;;6.93;4.63;;;20.90;99.90;;;;;;5030007;28;20036;-79
2021/07/27 05:48:58;;;;;;;6.13;4.50;;;20.90;99.90;;;;;;5029562;28;20030;-78
2021/07/27 05:51:26;;;;;;;5.88;4.30;;;21.00;99.90;;;;;;5028919;28;20025;-78
2021/07/27 05:53:51;;;;;;;6.18;4.57;;;21.00;99.90;;;;;;5028797;28;20111;-78
2021/07/27 05:56:17;;;;;;;5.13;4.07;;;21.10;99.90;;;;;;5029237;28;20701;-78
2021/07/27 05:58:42;;;;;;;6.88;4.43;;;21.10;99.90;;;;;;5030493;28;20561;-79
2021/07/27 06:01:08;;;;;;;8.98;4.65;;;21.20;99.90;;;;;;5029554;28;20547;-80
2021/07/27 06:03:33;;;;;;;8.43;5.07;;;21.30;99.90;;;;;;5027433;28;20025;-77
2021/07/27 06:05:59;;;;;;;10.43;4.03;;;21.30;99.90;;;;;;5028393;28;20045;-77
2021/07/27 06:08:24;;;;;;;9.25;4.25;;;21.30;99.90;;;;;;5029106;28;20025;-84
2021/07/27 06:10:50;;;;;;;5.85;4.18;;;21.30;99.90;;;;;;5032307;28;20033;-80
2021/07/27 06:13:15;;;;;;;14.65;4.22;;;21.40;99.90;;;;;;5025285;28;20536;-80
2021/07/27 06:15:41;;;;;;;4.70;4.00;;;21.40;99.90;;;;;;5029277;28;20017;-81
2021/07/27 06:18:06;;;;;;;5.43;3.83;;;21.40;99.90;;;;;;5029044;28;20013;-74
2021/07/27 06:20:32;;;;;;;6.22;4.13;;;21.50;99.90;;;;;;5028697;28;20496;-87
2021/07/27 06:22:57;;;;;;;5.65;3.90;;;21.50;99.90;;;;;;5027245;28;20027;-77
2021/07/27 06:25:22;;;;;;;6.13;3.88;;;21.50;99.90;;;;;;5040367;28;20091;-75
2021/07/27 06:27:48;;;;;;;8.20;3.80;;;21.50;99.90;;;;;;5026737;28;20380;-78
2021/07/27 06:30:14;;;;;;;5.18;3.78;;;21.60;99.90;;;;;;5029241;28;20120;-76
2021/07/27 06:32:39;;;;;;;5.05;3.28;;;21.60;99.90;;;;;;5027823;28;20025;-76
2021/07/27 06:35:05;;;;;;;5.45;3.17;;;21.70;99.90;;;;;;5029277;28;20022;-76
2021/07/27 06:37:30;;;;;;;5.97;3.50;;;21.70;99.90;;;;;;5027662;28;20445;-77
2021/07/27 06:39:56;;;;;;;9.75;3.50;;;21.70;99.90;;;;;;5029016;28;20215;-76
2021/07/27 06:42:21;;;;;;;6.38;3.40;;;21.70;99.90;;;;;;5027051;28;20021;-76
2021/07/27 06:44:50;;;;;;;6.00;3.20;;;21.80;99.90;;;;;;5027927;28;20025;-76
2021/07/27 06:47:15;;;;;;;4.32;3.30;;;21.80;99.90;;;;;;5028183;28;20021;-76
2021/07/27 06:49:41;;;;;;;5.60;4.05;;;21.80;99.90;;;;;;5027982;28;20056;-76
2021/07/27 06:52:06;;;;;;;5.45;3.38;;;21.80;99.90;;;;;;5026661;28;20104;-77
2021/07/27 06:54:33;;;;;;;4.82;3.45;;;21.80;99.90;;;;;;5027597;28;20029;-76
2021/07/27 06:56:59;;;;;;;4.10;2.85;;;21.90;99.90;;;;;;5028353;28;20071;-76
2021/07/27 06:59:24;;;;;;;3.78;3.20;;;22.00;99.90;;;;;;5029752;28;20022;-77
2021/07/27 07:01:50;;;;;;;7.50;3.40;;;22.00;99.90;;;;;;5019311;28;20028;-76
2021/07/27 07:04:16;;;;;;;5.25;3.03;;;22.10;99.90;;;;;;5024128;28;20030;-77
2021/07/27 07:06:41;;;;;;;3.97;3.22;;;22.00;99.80;;;;;;5020737;28;20048;-77
2021/07/27 07:09:07;;;;;;;4.53;3.28;;;22.10;99.10;;;;;;5026080;28;20017;-76
2021/07/27 07:11:33;;;;;;;4.28;3.00;;;22.10;98.70;;;;;;5026835;28;20064;-76
2021/07/27 07:13:58;;;;;;;3.50;2.80;;;22.20;99.40;;;;;;5033761;28;20029;-77
2021/07/27 07:16:24;;;;;;;8.57;3.22;;;22.20;99.50;;;;;;5029916;28;20024;-77
2021/07/27 07:18:49;;;;;;;8.30;2.78;;;22.30;99.00;;;;;;5023886;28;20025;-76
2021/07/27 07:21:15;;;;;;;4.68;3.25;;;22.40;97.60;;;;;;5027693;28;20476;-77
2021/07/27 07:23:41;;;;;;;6.60;3.30;;;22.40;98.50;;;;;;5027798;28;20040;-76
2021/07/27 07:26:08;;;;;;;4.57;3.50;;;22.40;96.80;;;;;;5024208;28;20029;-76
2021/07/27 07:28:34;;;;;;;4.45;3.10;;;22.50;96.70;;;;;;5021400;28;20038;-76
2021/07/27 07:31:00;;;;;;;8.75;2.92;;;22.60;96.00;;;;;;5023152;28;20029;-76
2021/07/27 07:33:26;;;;;;;3.78;2.60;;;22.60;95.10;;;;;;5023154;28;20467;-76
2021/07/27 07:35:58;;;;;;;3.25;2.58;;;22.70;95.20;;;;;;5020634;28;20041;-77
2021/07/27 07:38:23;;;;;;;4.47;3.00;;;22.70;94.70;;;;;;5024829;28;20467;-76
2021/07/27 07:40:48;;;;;;;3.97;2.75;;;22.70;95.00;;;;;;5027983;28;20144;-76
2021/07/27 07:43:14;;;;;;;4.97;3.03;;;22.70;95.70;;;;;;5031012;28;20105;-76
2021/07/27 07:45:39;;;;;;;4.85;3.15;;;22.70;96.00;;;;;;5031843;28;20026;-76
2021/07/27 07:48:05;;;;;;;6.10;3.00;;;22.70;96.00;;;;;;5032639;28;20068;-76
2021/07/27 07:50:31;;;;;;;5.57;2.80;;;22.70;96.00;;;;;;5030421;28;20033;-76
2021/07/27 07:52:58;;;;;;;5.22;3.10;;;22.80;95.70;;;;;;5031711;28;20024;-76
2021/07/27 07:55:24;;;;;;;4.57;2.75;;;22.90;95.00;;;;;;5030540;28;20040;-77
2021/07/27 07:57:49;;;;;;;4.43;3.20;;;22.90;94.00;;;;;;5027618;28;20026;-77
2021/07/27 08:00:15;;;;;;;5.47;2.78;;;23.00;94.30;;;;;;5031159;28;20099;-76
2021/07/27 08:02:41;;;;;;;9.63;3.50;;;23.10;93.00;;;;;;5031022;28;20040;-79
2021/07/27 08:05:07;;;;;;;5.68;3.35;;;23.10;93.10;;;;;;5032124;28;20021;-84
2021/07/27 08:07:34;;;;;;;5.65;3.72;;;23.10;93.00;;;;;;5026214;28;20136;-84
2021/07/27 08:09:59;;;;;;;4.90;3.60;;;23.10;94.40;;;;;;5030199;28;20029;-81
2021/07/27 08:12:25;;;;;;;6.63;3.40;;;23.10;95.40;;;;;;5030393;28;20044;-82
2021/07/27 08:14:50;;;;;;;4.65;3.53;;;23.20;94.50;;;;;;5027926;28;20029;-82
2021/07/27 08:17:16;;;;;;;7.57;3.58;;;23.20;94.30;;;;;;5026145;28;20027;-82
2021/07/27 08:19:41;;;;;;;4.50;3.45;;;23.30;94.70;;;;;;5031294;28;20025;-83
2021/07/27 08:22:07;;;;;;;4.90;3.45;;;23.30;94.90;;;;;;5031597;28;20113;-81
2021/07/27 08:24:34;;;;;;;4.70;3.10;;;23.30;95.30;;;;;;5031111;28;20666;-83
2021/07/27 08:27:08;;;;;;;5.57;3.83;;;23.40;94.60;;;;;;5030519;28;20022;-83
2021/07/27 08:29:34;;;;;;;5.00;3.30;;;23.40;94.10;;;;;;5030279;28;20034;-80
2021/07/27 08:32:04;;;;;;;5.40;2.70;;;23.50;94.10;;;;;;5030661;28;20033;-77
2021/07/27 08:34:34;;;;;;;5.70;3.45;;;23.60;92.60;;;;;;5029769;28;20026;-83
2021/07/27 08:36:59;;;;;;;4.03;3.22;;;23.60;92.00;;;;;;5029407;28;20507;-81
2021/07/27 08:39:25;;;;;;;5.72;2.95;;;23.60;92.60;;;;;;5029735;28;20468;-80
2021/07/27 08:41:52;;;;;;;7.38;3.58;;;23.70;92.00;;;;;;5029690;28;20144;-81
2021/07/27 08:44:18;;;;;;;5.10;3.15;;;23.70;92.50;;;;;;5029295;28;20040;-77
2021/07/27 08:47:10;;;;;;;4.78;2.85;;;23.80;92.50;;;;;;5028229;28;20044;-77
2021/07/27 08:49:35;;;;;;;7.47;3.28;;;23.80;92.60;;;;;;5025903;28;20156;-76
2021/07/27 08:52:01;;;;;;;3.58;2.90;;;23.90;90.50;;;;;;5039054;28;20100;-76
2021/07/27 08:54:27;;;;;;;3.92;2.97;;;24.00;90.40;;;;;;5027726;28;20037;-77
2021/07/27 08:56:54;;;;;;;3.97;2.90;;;24.00;90.50;;;;;;5018580;28;20026;-78
2021/07/27 08:59:21;;;;;;;6.57;2.90;;;24.00;90.00;;;;;;5030802;28;20120;-77
2021/07/27 09:01:47;;;;;;;7.75;3.05;;;24.10;90.00;;;;;;5024010;28;20476;-78
2021/07/27 09:04:14;;;;;;;5.05;2.78;;;24.20;90.10;;;;;;5030384;28;20033;-77
2021/07/27 09:06:39;;;;;;;4.55;2.50;;;24.30;85.80;;;;;;5029009;28;20057;-78
2021/07/27 09:09:09;;;;;;;4.35;3.20;;;24.30;86.90;;;;;;5030906;28;20091;-77
2021/07/27 09:11:45;;;;;;;7.43;2.80;;;24.40;84.70;;;;;;5030622;28;20033;-77
2021/07/27 09:14:16;;;;;;;3.15;2.35;;;24.50;85.30;;;;;;5022352;28;20028;-75
2021/07/27 09:16:46;;;;;;;2.83;2.50;;;24.50;84.60;;;;;;5028746;28;20026;-76
2021/07/27 09:19:12;;;;;;;4.97;2.40;;;24.60;86.40;;;;;;5029385;28;20032;-77
2021/07/27 09:21:41;;;;;;;10.25;2.40;;;24.60;83.60;;;;;;5032808;28;20022;-77
2021/07/27 09:24:07;;;;;;;4.75;2.13;;;24.70;82.20;;;;;;5036992;28;20056;-78
2021/07/27 09:26:32;;;;;;;5.75;2.25;;;24.70;81.00;;;;;;5039469;28;20083;-77
2021/07/27 09:29:02;;;;;;;3.20;2.42;;;24.80;79.40;;;;;;5028419;28;20083;-78
2021/07/27 09:31:27;;;;;;;3.47;2.30;;;24.80;76.80;;;;;;5028628;28;20057;-77
2021/07/27 09:33:53;;;;;;;6.70;2.50;;;24.90;77.70;;;;;;5029419;28;20574;-77
2021/07/27 09:36:28;;;;;;;3.10;2.50;;;24.90;76.10;;;;;;5029054;28;20495;-77
2021/07/27 09:39:04;;;;;;;4.57;2.67;;;25.00;75.70;;;;;;5025929;28;20029;-77
2021/07/27 09:41:31;;;;;;;2.15;1.95;;;24.90;76.10;;;;;;5027811;28;20033;-78
2021/07/27 09:43:57;;;;;;;4.50;2.45;;;24.90;77.00;;;;;;5029389;28;20021;-74
2021/07/27 09:46:25;;;;;;;3.58;2.63;;;25.00;77.50;;;;;;5027106;28;20028;-74
2021/07/27 09:49:02;;;;;;;4.70;2.65;;;25.20;78.90;;;;;;5028164;28;20029;-75
2021/07/27 09:51:30;;;;;;;3.25;2.40;;;25.30;77.80;;;;;;5025423;28;20037;-74
2021/07/27 09:53:57;;;;;;;3.72;2.90;;;25.40;74.90;;;;;;5028520;28;20396;-75
2021/07/27 09:56:22;;;;;;;2.63;2.42;;;25.50;76.00;;;;;;5030398;28;20022;-74
2021/07/27 09:58:47;;;;;;;4.35;2.60;;;25.50;73.50;;;;;;5039096;28;20104;-74
2021/07/27 10:01:24;;;;;;;3.67;2.40;;;25.60;72.20;;;;;;5030326;28;20030;-75
2021/07/27 10:04:00;;;;;;;3.00;2.40;;;25.60;69.20;;;;;;5028988;28;20384;-75
2021/07/27 10:06:28;;;;;;;4.75;2.70;;;25.50;70.60;;;;;;5026869;28;20064;-74
2021/07/27 10:08:59;;;;;;;4.50;2.58;;;25.30;69.30;;;;;;5028134;28;20041;-74
2021/07/27 10:11:36;;;;;;;6.22;2.67;;;25.20;71.00;;;;;;5029144;28;20071;-74
2021/07/27 10:14:07;;;;;;;3.85;2.83;;;25.00;71.80;;;;;;5028473;28;20032;-74
2021/07/27 10:16:32;;;;;;;13.57;3.88;;;24.90;75.70;;;;;;5028795;28;20029;-74
2021/07/27 10:18:58;;;;;;;7.65;3.92;;;24.70;97.60;;;;;;5029967;28;20037;-74
2021/07/27 10:21:25;;;;;;;9.32;4.80;;;23.80;99.90;;;;;;5028318;28;20060;-74
2021/07/27 10:24:08;;;;;;;7.85;4.45;;;23.40;99.90;;;;;;5033962;28;20448;-74
2021/07/27 10:26:34;;;;;;;8.20;4.30;;;23.40;99.90;;;;;;5028638;28;20037;-75
2021/07/27 10:29:00;;;;;;;6.22;4.38;;;23.50;99.90;;;;;;5028128;28;20098;-74
2021/07/27 10:31:36;;;;;;;7.93;3.90;;;23.60;99.90;;;;;;5028941;28;20124;-75
2021/07/27 10:34:04;;;;;;;7.50;3.92;;;23.70;99.90;;;;;;5029110;28;20492;-76
2021/07/27 10:36:32;;;;;;;9.18;3.92;;;23.80;99.90;;;;;;5028307;28;20033;-75
2021/07/27 10:39:17;;;;;;;5.88;3.47;;;23.90;99.90;;;;;;5018260;28;20018;-76
2021/07/27 10:41:48;;;;;;;7.60;3.42;;;24.20;99.90;;;;;;5027910;28;20033;-74
2021/07/27 10:44:20;;;;;;;5.35;3.45;;;24.20;99.90;;;;;;5026799;28;20035;-75
2021/07/27 10:46:48;;;;;;;6.63;3.83;;;24.30;99.90;;;;;;5027595;28;20079;-74
2021/07/27 10:49:16;;;;;;;3.75;3.03;;;24.60;99.90;;;;;;5025646;28;20488;-74
2021/07/27 10:51:44;;;;;;;5.05;3.33;;;25.00;99.90;;;;;;5028570;28;20061;-74
2021/07/27 10:54:09;;;;;;;5.40;3.25;;;25.30;99.90;;;;;;5029100;28;20022;-75
2021/07/27 10:56:36;;;;;;;3.90;3.10;;;25.50;99.90;;;;;;5028867;28;20037;-74
2021/07/27 10:59:02;;;;;;;5.25;2.60;;;25.60;97.00;;;;;;5028317;28;20081;-75
2021/07/27 11:01:29;;;;;;;3.45;2.80;;;25.80;97.30;;;;;;5028049;28;20030;-75
2021/07/27 11:04:06;;;;;;;4.63;2.60;;;25.80;93.90;;;;;;5028518;28;20040;-74
2021/07/27 11:06:31;;;;;;;3.20;2.80;;;26.00;90.00;;;;;;5030943;28;20053;-74
2021/07/27 11:09:00;;;;;;;3.13;2.70;;;26.00;83.90;;;;;;5029202;28;20053;-74
2021/07/27 11:11:26;;;;;;;8.43;2.58;;;26.10;82.10;;;;;;5027952;28;20037;-75
2021/07/27 11:13:55;;;;;;;2.90;2.38;;;26.30;78.20;;;;;;5025553;28;20381;-74
2021/07/27 11:16:20;;;;;;;2.92;2.22;;;26.60;79.00;;;;;;5032871;28;20384;-73
2021/07/27 11:18:47;;;;;;;3.97;2.42;;;26.90;77.30;;;;;;5032379;28;20021;-73
2021/07/27 11:21:14;;;;;;;3.67;2.72;;;27.20;76.20;;;;;;5032668;28;20108;-74
2021/07/27 11:23:40;;;;;;;4.70;2.97;;;27.50;74.00;;;;;;5035223;28;20036;-75
2021/07/27 11:26:06;;;;;;;3.88;2.58;;;27.60;71.80;;;;;;5043046;28;20033;-74
2021/07/27 11:28:39;;;;;;;4.53;2.60;;;27.70;67.30;;;;;;5032638;28;20026;-74
2021/07/27 11:31:18;;;;;;;5.13;2.58;;;27.80;63.90;;;;;;5031242;28;20034;-74
2021/07/27 11:33:51;;;;;;;3.78;2.53;;;28.00;67.10;;;;;;5032175;28;20051;-74
2021/07/27 11:36:23;;;;;;;3.13;2.33;;;28.20;64.20;;;;;;5036864;28;20475;-74
2021/07/27 11:38:49;;;;;;;3.15;2.45;;;28.30;61.30;;;;;;5030323;28;20033;-74
2021/07/27 11:41:18;;;;;;;5.22;2.70;;;28.50;63.80;;;;;;5030781;28;20035;-74
2021/07/27 11:43:44;;;;;;;4.07;2.50;;;28.70;60.30;;;;;;5029282;28;20064;-73
2021/07/27 11:46:16;;;;;;;4.05;2.38;;;28.90;59.90;;;;;;5032162;28;20052;-74
2021/07/27 11:48:43;;;;;;;4.93;2.38;;;29.10;59.30;;;;;;5032304;28;20104;-74
2021/07/27 11:51:09;;;;;;;4.05;2.35;;;29.40;60.30;;;;;;5031411;28;20029;-75
2021/07/27 11:53:39;;;;;;;3.33;2.08;;;29.80;56.60;;;;;;5032196;28;20132;-74
2021/07/27 11:56:17;;;;;;;4.18;2.30;;;30.10;55.70;;;;;;5027976;28;20037;-74
2021/07/27 11:58:46;;;;;;;2.75;2.28;;;30.30;55.90;;;;;;5031716;28;20029;-75
2021/07/27 12:01:12;;;;;;;2.47;2.28;;;30.80;55.80;;;;;;5032280;28;20148;-74
2021/07/27 12:03:38;;;;;;;3.50;2.60;;;30.40;54.20;;;;;;5031253;28;20025;-75
2021/07/27 12:06:14;;;;;;;3.47;2.85;;;29.90;54.80;;;;;;5031609;28;20749;-74
2021/07/27 12:08:41;;;;;;;4.15;2.22;;;29.30;55.30;;;;;;5031523;28;20034;-73
2021/07/27 12:11:07;;;;;;;4.25;2.47;;;28.90;55.70;;;;;;5032068;28;20036;-74
2021/07/27 12:13:32;;;;;;;5.18;2.47;;;29.10;57.50;;;;;;5034712;28;20044;-74
2021/07/27 12:15:59;;;;;;;4.25;2.47;;;29.60;56.10;;;;;;5031953;28;20401;-74
2021/07/27 12:18:24;;;;;;;2.55;2.30;;;30.10;55.70;;;;;;5030216;28;20488;-74
2021/07/27 12:20:50;;;;;;;3.20;2.35;;;30.60;56.80;;;;;;5031696;28;20112;-74
2021/07/27 12:23:20;;;;;;;2.35;2.15;;;31.40;52.50;;;;;;5031517;28;20025;-74
2021/07/27 12:25:45;;;;;;;3.65;2.13;;;31.60;51.10;;;;;;5027254;28;20034;-74
2021/07/27 12:28:11;;;;;;;5.55;2.28;;;31.30;51.80;;;;;;5031220;28;20083;-74
2021/07/27 12:30:36;;;;;;;2.95;2.35;;;31.10;51.60;;;;;;5032688;28;20041;-74
2021/07/27 12:33:02;;;;;;;3.42;2.38;;;30.40;52.10;;;;;;5042534;28;20475;-73
2021/07/27 12:35:27;;;;;;;3.85;2.15;;;29.80;53.70;;;;;;5031225;28;20038;-73
2021/07/27 12:37:59;;;;;;;4.35;2.55;;;29.40;54.40;;;;;;5031228;28;20030;-74
2021/07/27 12:40:25;;;;;;;5.40;1.90;;;29.20;54.70;;;;;;5030383;28;20030;-74
2021/07/27 12:42:50;;;;;;;4.63;2.17;;;28.80;55.90;;;;;;5030764;28;20083;-73
2021/07/27 12:45:16;;;;;;;6.10;2.60;;;28.50;57.40;;;;;;5031288;28;20030;-74
2021/07/27 12:47:42;;;;;;;2.83;2.40;;;28.30;57.30;;;;;;5030743;28;20072;-74
2021/07/27 12:50:08;;;;;;;2.60;2.17;;;28.00;57.20;;;;;;5026716;28;20396;-73
2021/07/27 12:52:33;;;;;;;3.88;2.28;;;27.70;57.50;;;;;;5028601;28;20041;-73
2021/07/27 12:54:59;;;;;;;4.97;2.25;;;27.40;58.20;;;;;;5030693;28;20060;-73
2021/07/27 12:57:24;;;;;;;2.70;1.95;;;27.30;58.80;;;;;;5028018;28;20060;-77
2021/07/27 12:59:50;;;;;;;3.45;2.20;;;27.30;58.00;;;;;;5030264;28;20388;-77
2021/07/27 13:02:18;;;;;;;2.83;2.20;;;27.60;62.10;;;;;;5027842;28;20465;-77
2021/07/27 13:04:44;;;;;;;4.53;2.50;;;28.70;56.60;;;;;;5028384;28;20029;-77
2021/07/27 13:07:11;;;;;;;2.47;2.05;;;29.50;54.50;;;;;;5040499;28;20579;-77
2021/07/27 13:09:36;;;;;;;3.15;2.30;;;29.70;53.60;;;;;;5028800;28;20142;-75